EmailTwitter


Observations de surface / Europe / LIRF (16242)

Régions: Québec | Canada | États-Unis | Europe | France | UK | Ailleurs
Station
Affichage
Infos & localisation pour LIRF (16242) | Aide pour décoder les METARs

Observations prises le 2018-11-16 à 03H50 UTC (LIRF)

Température: 11.0 Celsius

Point de rosée: 9.0 Celsius

Humidité relative: 87%

Vents: Nord-est à 11 km/h ou 6 noeuds.

Pression au niveau moyen de la mer: 102.00 kilopascals.

Observation METAR:

LIRF 160350Z 05006KT CAVOK 11/09 Q1020 NOSIG=